^^
Meteo Knjazevac Station Historical Data
Daily Summary for January 14, 2021 Units:  Metric    English   Both
Daily Weekly Monthly Yearly Custom
  High: Low: Average:
Temperature: 19.3 °C 14.5 °C 16.5 °C
Dew Point: 15.3 °C 12.9 °C 13.9 °C
Humidity: 90% 77% 85%
Wind Speed: 4.8km/h 0km/h 1.4km/h
Wind Gust: 8km/h - -
Wind- - West
Pressure: 1024.3 hPa 1023.2 hPa -
Precipitation: 0 mm    
Historical Graphs
 
 
Tabular Data for January 14, 2021
Time Temperature Dew Point Pressure Wind Wind Speed Wind Gust Humidity Rainfall Rate (Hourly) solar Conditions
00:00 19.3 °C 15.2 °C 1023.2 hPa WSW 1.6 km/h 4.8 km/h 77% 0 mm 0 W/m2
00:10 19.2 °C 15.3 °C 1023.2 hPa Calm   4.8 km/h 78% 0 mm 0 W/m2
00:20 19.1 °C 15.2 °C 1023.2 hPa Calm   4.8 km/h 78% 0 mm 0 W/m2
00:30 19 °C 15.3 °C 1023.2 hPa WSW 1.6 km/h 3.2 km/h 79% 0 mm 0 W/m2
00:40 18.8 °C 15.1 °C 1023.2 hPa Calm   1.6 km/h 79% 0 mm 0 W/m2
00:50 18.7 °C 14.9 °C 1023.6 hPa Calm   3.2 km/h 79% 0 mm 0 W/m2
01:00 18.4 °C 14.7 °C 1023.6 hPa Calm   1.6 km/h 79% 0 mm 0 W/m2
01:10 18 °C 14.5 °C 1023.6 hPa Calm   3.2 km/h 80% 0 mm 0 W/m2
01:20 17.6 °C 14.3 °C 1023.6 hPa WSW 1.6 km/h 3.2 km/h 81% 0 mm 0 W/m2
01:30 17.4 °C 14.5 °C 1023.9 hPa West 3.2 km/h 8 km/h 83% 0 mm 0 W/m2
01:40 17.4 °C 14.5 °C 1023.9 hPa Calm   4.8 km/h 83% 0 mm 0 W/m2
01:50 17.2 °C 14.3 °C 1023.9 hPa Calm   3.2 km/h 83% 0 mm 0 W/m2
02:00 17 °C 14.1 °C 1023.9 hPa Calm   1.6 km/h 83% 0 mm 0 W/m2
02:10 16.9 °C 14.2 °C 1023.9 hPa Calm   3.2 km/h 84% 0 mm 0 W/m2
02:20 16.9 °C 14.2 °C 1023.9 hPa Calm   3.2 km/h 84% 0 mm 0 W/m2
02:30 16.7 °C 14 °C 1023.9 hPa Calm   3.2 km/h 84% 0 mm 0 W/m2
02:40 16.6 °C 13.9 °C 1023.9 hPa WNW 1.6 km/h 3.2 km/h 84% 0 mm 0 W/m2
02:50 16.3 °C 13.8 °C 1023.9 hPa SW 1.6 km/h 3.2 km/h 85% 0 mm 0 W/m2
03:00 16.1 °C 13.8 °C 1023.9 hPa WNW 1.6 km/h 3.2 km/h 86% 0 mm 0 W/m2
03:10 16 °C 13.7 °C 1023.9 hPa West 1.6 km/h 4.8 km/h 86% 0 mm 0 W/m2
03:20 15.9 °C 13.6 °C 1023.9 hPa West 3.2 km/h 4.8 km/h 86% 0 mm 0 W/m2
03:30 15.8 °C 13.8 °C 1023.9 hPa West 1.6 km/h 4.8 km/h 88% 0 mm 0 W/m2
03:40 15.8 °C 13.8 °C 1023.6 hPa WNW 1.6 km/h 4.8 km/h 88% 0 mm 0 W/m2
03:50 15.7 °C 13.7 °C 1023.6 hPa West 1.6 km/h 3.2 km/h 88% 0 mm 0 W/m2
04:00 15.5 °C 13.5 °C 1023.6 hPa WNW 1.6 km/h 3.2 km/h 88% 0 mm 0 W/m2
04:10 15.4 °C 13.4 °C 1023.6 hPa Calm   3.2 km/h 88% 0 mm 0 W/m2
04:20 15.2 °C 13.2 °C 1023.6 hPa WNW 1.6 km/h 3.2 km/h 88% 0 mm 0 W/m2
04:30 15.2 °C 13.4 °C 1023.9 hPa WNW 3.2 km/h 4.8 km/h 89% 0 mm 0 W/m2
04:40 15.2 °C 13.6 °C 1023.9 hPa West 4.8 km/h 8 km/h 90% 0 mm 0 W/m2
04:50 15.2 °C 13.4 °C 1023.9 hPa West 1.6 km/h 6.4 km/h 89% 0 mm 0 W/m2
05:00 15.1 °C 13.3 °C 1023.9 hPa WSW 1.6 km/h 4.8 km/h 89% 0 mm 0 W/m2
05:10 14.8 °C 13.2 °C 1023.9 hPa West 3.2 km/h 4.8 km/h 90% 0 mm 0 W/m2
05:20 14.8 °C 13.2 °C 1024.3 hPa West 3.2 km/h 6.4 km/h 90% 0 mm 0 W/m2
05:30 14.8 °C 13.2 °C 1024.3 hPa West 1.6 km/h 6.4 km/h 90% 0 mm 0 W/m2
05:40 14.8 °C 13.2 °C 1024.3 hPa WNW 1.6 km/h 3.2 km/h 90% 0 mm 5 W/m2
05:50 14.7 °C 13.1 °C 1024.3 hPa WSW 1.6 km/h 3.2 km/h 90% 0 mm 12 W/m2
06:00 14.5 °C 12.9 °C 1024.3 hPa West 3.2 km/h 6.4 km/h 90% 0 mm 22 W/m2
Knjazevac, Serbia
Compliments of Weather Underground - 2 mb